sensor_id;sensor_type;location;lat;lon;timestamp;temperature;humidity
15554;DHT22;7878;44.632;10.942;2023-04-25T00:01:11;16.40;80.00
15554;DHT22;7878;44.632;10.942;2023-04-25T00:03:39;16.40;80.60
15554;DHT22;7878;44.632;10.942;2023-04-25T00:06:05;16.40;80.60
15554;DHT22;7878;44.632;10.942;2023-04-25T00:08:32;16.40;80.50
15554;DHT22;7878;44.632;10.942;2023-04-25T00:10:58;16.50;80.10
15554;DHT22;7878;44.632;10.942;2023-04-25T00:13:24;16.50;80.60
15554;DHT22;7878;44.632;10.942;2023-04-25T00:15:51;16.50;80.20
15554;DHT22;7878;44.632;10.942;2023-04-25T00:18:19;16.40;80.60
15554;DHT22;7878;44.632;10.942;2023-04-25T00:20:44;16.40;80.60
15554;DHT22;7878;44.632;10.942;2023-04-25T00:23:13;16.40;80.80
15554;DHT22;7878;44.632;10.942;2023-04-25T00:25:44;16.40;81.20
15554;DHT22;7878;44.632;10.942;2023-04-25T00:28:11;16.40;80.90
15554;DHT22;7878;44.632;10.942;2023-04-25T00:30:36;16.30;80.80
15554;DHT22;7878;44.632;10.942;2023-04-25T00:33:02;16.30;81.10
15554;DHT22;7878;44.632;10.942;2023-04-25T00:35:28;16.30;81.10
15554;DHT22;7878;44.632;10.942;2023-04-25T00:37:54;16.30;80.70
15554;DHT22;7878;44.632;10.942;2023-04-25T00:40:20;16.40;81.00
15554;DHT22;7878;44.632;10.942;2023-04-25T00:42:46;16.40;81.50
15554;DHT22;7878;44.632;10.942;2023-04-25T00:45:13;16.30;81.80
15554;DHT22;7878;44.632;10.942;2023-04-25T00:47:41;16.20;81.30
15554;DHT22;7878;44.632;10.942;2023-04-25T00:50:07;16.20;81.90
15554;DHT22;7878;44.632;10.942;2023-04-25T00:52:33;16.20;82.10
15554;DHT22;7878;44.632;10.942;2023-04-25T00:54:59;16.20;82.00
15554;DHT22;7878;44.632;10.942;2023-04-25T00:57:26;16.10;81.50
15554;DHT22;7878;44.632;10.942;2023-04-25T00:59:52;16.10;82.00
15554;DHT22;7878;44.632;10.942;2023-04-25T01:02:19;16.00;82.10
15554;DHT22;7878;44.632;10.942;2023-04-25T01:04:46;16.00;82.50
15554;DHT22;7878;44.632;10.942;2023-04-25T01:07:12;16.00;82.30
15554;DHT22;7878;44.632;10.942;2023-04-25T01:09:39;16.00;82.20
15554;DHT22;7878;44.632;10.942;2023-04-25T01:12:05;16.00;82.20
15554;DHT22;7878;44.632;10.942;2023-04-25T01:14:31;16.00;82.60
15554;DHT22;7878;44.632;10.942;2023-04-25T01:16:59;16.10;83.00
15554;DHT22;7878;44.632;10.942;2023-04-25T01:19:25;16.10;82.60
15554;DHT22;7878;44.632;10.942;2023-04-25T01:21:51;16.10;82.70
15554;DHT22;7878;44.632;10.942;2023-04-25T01:24:17;16.10;82.70
15554;DHT22;7878;44.632;10.942;2023-04-25T01:26:43;16.00;82.20
15554;DHT22;7878;44.632;10.942;2023-04-25T01:29:19;16.00;83.00
15554;DHT22;7878;44.632;10.942;2023-04-25T01:31:45;15.90;83.30
15554;DHT22;7878;44.632;10.942;2023-04-25T01:34:12;15.90;83.10
15554;DHT22;7878;44.632;10.942;2023-04-25T01:36:38;15.80;82.50
15554;DHT22;7878;44.632;10.942;2023-04-25T01:39:03;15.90;83.00
15554;DHT22;7878;44.632;10.942;2023-04-25T01:41:29;15.90;82.90
15554;DHT22;7878;44.632;10.942;2023-04-25T01:43:55;15.90;82.50
15554;DHT22;7878;44.632;10.942;2023-04-25T01:46:21;15.90;82.80
15554;DHT22;7878;44.632;10.942;2023-04-25T01:48:47;15.90;82.90
15554;DHT22;7878;44.632;10.942;2023-04-25T01:51:13;15.90;83.00
15554;DHT22;7878;44.632;10.942;2023-04-25T01:53:39;15.90;83.20
15554;DHT22;7878;44.632;10.942;2023-04-25T01:56:05;15.90;83.40
15554;DHT22;7878;44.632;10.942;2023-04-25T01:58:30;15.90;83.10
15554;DHT22;7878;44.632;10.942;2023-04-25T02:00:56;15.90;83.00
15554;DHT22;7878;44.632;10.942;2023-04-25T02:03:22;15.90;83.40
15554;DHT22;7878;44.632;10.942;2023-04-25T02:05:48;15.80;83.10
15554;DHT22;7878;44.632;10.942;2023-04-25T02:08:16;15.70;83.60
15554;DHT22;7878;44.632;10.942;2023-04-25T02:10:42;15.70;83.60
15554;DHT22;7878;44.632;10.942;2023-04-25T02:13:08;15.60;83.90
15554;DHT22;7878;44.632;10.942;2023-04-25T02:15:34;15.60;84.00
15554;DHT22;7878;44.632;10.942;2023-04-25T02:18:00;15.60;84.20
15554;DHT22;7878;44.632;10.942;2023-04-25T02:20:26;15.50;84.10
15554;DHT22;7878;44.632;10.942;2023-04-25T02:22:52;15.50;84.00
15554;DHT22;7878;44.632;10.942;2023-04-25T02:25:19;15.50;84.60
15554;DHT22;7878;44.632;10.942;2023-04-25T02:27:46;15.50;84.60
15554;DHT22;7878;44.632;10.942;2023-04-25T02:30:11;15.50;84.70
15554;DHT22;7878;44.632;10.942;2023-04-25T02:32:38;15.40;84.70
15554;DHT22;7878;44.632;10.942;2023-04-25T02:35:04;15.40;85.00
15554;DHT22;7878;44.632;10.942;2023-04-25T02:37:31;15.50;84.60
15554;DHT22;7878;44.632;10.942;2023-04-25T02:39:57;15.50;84.20
15554;DHT22;7878;44.632;10.942;2023-04-25T02:42:23;15.50;84.60
15554;DHT22;7878;44.632;10.942;2023-04-25T02:44:48;15.50;84.40
15554;DHT22;7878;44.632;10.942;2023-04-25T02:47:14;15.50;84.00
15554;DHT22;7878;44.632;10.942;2023-04-25T02:49:40;15.60;84.20
15554;DHT22;7878;44.632;10.942;2023-04-25T02:52:05;15.50;84.60
15554;DHT22;7878;44.632;10.942;2023-04-25T02:54:31;15.40;84.90
15554;DHT22;7878;44.632;10.942;2023-04-25T02:56:57;15.30;84.70
15554;DHT22;7878;44.632;10.942;2023-04-25T02:59:23;15.40;84.70
15554;DHT22;7878;44.632;10.942;2023-04-25T03:01:48;15.40;84.50
15554;DHT22;7878;44.632;10.942;2023-04-25T03:04:14;15.50;84.40
15554;DHT22;7878;44.632;10.942;2023-04-25T03:06:40;15.50;84.20
15554;DHT22;7878;44.632;10.942;2023-04-25T03:09:06;15.50;84.00
15554;DHT22;7878;44.632;10.942;2023-04-25T03:11:31;15.50;83.70
15554;DHT22;7878;44.632;10.942;2023-04-25T03:13:57;15.50;83.80
15554;DHT22;7878;44.632;10.942;2023-04-25T03:16:24;15.50;84.00
15554;DHT22;7878;44.632;10.942;2023-04-25T03:18:49;15.30;83.50
15554;DHT22;7878;44.632;10.942;2023-04-25T03:21:16;15.20;83.60
15554;DHT22;7878;44.632;10.942;2023-04-25T03:23:42;15.20;83.30
15554;DHT22;7878;44.632;10.942;2023-04-25T03:26:07;15.10;82.70
15554;DHT22;7878;44.632;10.942;2023-04-25T03:28:33;15.00;83.60
15554;DHT22;7878;44.632;10.942;2023-04-25T03:30:58;15.00;83.20
15554;DHT22;7878;44.632;10.942;2023-04-25T03:33:24;14.80;83.40
15554;DHT22;7878;44.632;10.942;2023-04-25T03:35:50;14.90;83.50
15554;DHT22;7878;44.632;10.942;2023-04-25T03:38:15;14.90;83.40
15554;DHT22;7878;44.632;10.942;2023-04-25T03:40:42;14.90;83.30
15554;DHT22;7878;44.632;10.942;2023-04-25T03:43:07;14.90;83.40
15554;DHT22;7878;44.632;10.942;2023-04-25T03:45:33;14.90;83.40
15554;DHT22;7878;44.632;10.942;2023-04-25T03:47:58;15.00;83.10
15554;DHT22;7878;44.632;10.942;2023-04-25T03:50:24;15.00;83.00
15554;DHT22;7878;44.632;10.942;2023-04-25T03:52:50;15.00;83.50
15554;DHT22;7878;44.632;10.942;2023-04-25T03:55:15;14.90;83.70
15554;DHT22;7878;44.632;10.942;2023-04-25T03:57:41;14.80;83.90
15554;DHT22;7878;44.632;10.942;2023-04-25T04:00:07;14.80;84.00
15554;DHT22;7878;44.632;10.942;2023-04-25T04:02:33;14.80;83.90
15554;DHT22;7878;44.632;10.942;2023-04-25T04:05:00;14.70;83.80
15554;DHT22;7878;44.632;10.942;2023-04-25T04:07:26;14.70;83.80
15554;DHT22;7878;44.632;10.942;2023-04-25T04:09:51;14.70;83.80
15554;DHT22;7878;44.632;10.942;2023-04-25T04:12:17;14.60;83.80
15554;DHT22;7878;44.632;10.942;2023-04-25T04:14:43;14.60;84.10
15554;DHT22;7878;44.632;10.942;2023-04-25T04:17:09;14.60;84.20
15554;DHT22;7878;44.632;10.942;2023-04-25T04:19:35;14.60;84.40
15554;DHT22;7878;44.632;10.942;2023-04-25T04:22:01;14.50;84.60
15554;DHT22;7878;44.632;10.942;2023-04-25T04:24:27;14.50;85.40
15554;DHT22;7878;44.632;10.942;2023-04-25T04:26:52;14.50;85.00
15554;DHT22;7878;44.632;10.942;2023-04-25T04:29:18;14.40;84.80
15554;DHT22;7878;44.632;10.942;2023-04-25T04:31:50;14.50;85.00
15554;DHT22;7878;44.632;10.942;2023-04-25T04:34:16;14.50;84.80
15554;DHT22;7878;44.632;10.942;2023-04-25T04:36:47;14.60;84.80
15554;DHT22;7878;44.632;10.942;2023-04-25T04:39:13;14.60;84.50
15554;DHT22;7878;44.632;10.942;2023-04-25T04:41:39;14.70;84.70
15554;DHT22;7878;44.632;10.942;2023-04-25T04:44:05;14.70;84.80
15554;DHT22;7878;44.632;10.942;2023-04-25T04:46:32;14.70;84.40
15554;DHT22;7878;44.632;10.942;2023-04-25T04:49:04;14.70;84.60
15554;DHT22;7878;44.632;10.942;2023-04-25T04:51:30;14.80;84.80
15554;DHT22;7878;44.632;10.942;2023-04-25T04:53:56;14.80;84.50
15554;DHT22;7878;44.632;10.942;2023-04-25T04:56:24;14.80;84.70
15554;DHT22;7878;44.632;10.942;2023-04-25T04:58:51;14.80;84.20
15554;DHT22;7878;44.632;10.942;2023-04-25T05:01:18;14.80;84.60
15554;DHT22;7878;44.632;10.942;2023-04-25T05:03:44;14.80;84.30
15554;DHT22;7878;44.632;10.942;2023-04-25T05:06:09;14.80;84.50
15554;DHT22;7878;44.632;10.942;2023-04-25T05:08:36;14.80;84.00
15554;DHT22;7878;44.632;10.942;2023-04-25T05:11:02;14.80;83.80
15554;DHT22;7878;44.632;10.942;2023-04-25T05:13:27;14.80;83.70
15554;DHT22;7878;44.632;10.942;2023-04-25T05:15:53;14.80;83.90
15554;DHT22;7878;44.632;10.942;2023-04-25T05:18:19;14.80;83.70
15554;DHT22;7878;44.632;10.942;2023-04-25T05:20:44;14.80;84.00
15554;DHT22;7878;44.632;10.942;2023-04-25T05:23:10;14.80;84.40
15554;DHT22;7878;44.632;10.942;2023-04-25T05:25:36;14.80;83.90
15554;DHT22;7878;44.632;10.942;2023-04-25T05:28:02;14.80;84.10
15554;DHT22;7878;44.632;10.942;2023-04-25T05:30:27;14.80;84.00
15554;DHT22;7878;44.632;10.942;2023-04-25T05:32:53;14.90;84.30
15554;DHT22;7878;44.632;10.942;2023-04-25T05:35:19;14.90;84.40
15554;DHT22;7878;44.632;10.942;2023-04-25T05:37:44;14.90;84.00
15554;DHT22;7878;44.632;10.942;2023-04-25T05:40:11;14.90;84.00
15554;DHT22;7878;44.632;10.942;2023-04-25T05:42:36;15.00;84.00
15554;DHT22;7878;44.632;10.942;2023-04-25T05:45:02;15.00;84.00
15554;DHT22;7878;44.632;10.942;2023-04-25T05:47:28;15.00;83.90
15554;DHT22;7878;44.632;10.942;2023-04-25T05:49:54;15.00;84.10
15554;DHT22;7878;44.632;10.942;2023-04-25T05:52:19;15.00;84.10
15554;DHT22;7878;44.632;10.942;2023-04-25T05:54:45;15.00;83.50
15554;DHT22;7878;44.632;10.942;2023-04-25T05:57:24;15.10;84.00
15554;DHT22;7878;44.632;10.942;2023-04-25T05:59:50;15.10;84.80
15554;DHT22;7878;44.632;10.942;2023-04-25T06:02:16;15.10;83.60
15554;DHT22;7878;44.632;10.942;2023-04-25T06:04:42;15.20;83.60
15554;DHT22;7878;44.632;10.942;2023-04-25T06:07:07;15.20;83.80
15554;DHT22;7878;44.632;10.942;2023-04-25T06:09:34;15.20;84.30
15554;DHT22;7878;44.632;10.942;2023-04-25T06:12:00;15.30;83.80
15554;DHT22;7878;44.632;10.942;2023-04-25T06:14:26;15.40;84.50
15554;DHT22;7878;44.632;10.942;2023-04-25T06:16:52;15.30;84.90
15554;DHT22;7878;44.632;10.942;2023-04-25T06:19:17;15.40;84.90
15554;DHT22;7878;44.632;10.942;2023-04-25T06:21:44;15.40;85.80
15554;DHT22;7878;44.632;10.942;2023-04-25T06:24:09;15.50;85.60
15554;DHT22;7878;44.632;10.942;2023-04-25T06:26:35;15.40;85.40
15554;DHT22;7878;44.632;10.942;2023-04-25T06:29:01;15.50;86.10
15554;DHT22;7878;44.632;10.942;2023-04-25T06:31:27;15.50;86.30
15554;DHT22;7878;44.632;10.942;2023-04-25T06:33:54;15.50;86.00
15554;DHT22;7878;44.632;10.942;2023-04-25T06:36:20;15.50;86.50
15554;DHT22;7878;44.632;10.942;2023-04-25T06:38:51;15.50;86.10
15554;DHT22;7878;44.632;10.942;2023-04-25T06:41:17;15.60;86.40
15554;DHT22;7878;44.632;10.942;2023-04-25T06:43:43;15.60;85.90
15554;DHT22;7878;44.632;10.942;2023-04-25T06:46:09;15.60;87.00
15554;DHT22;7878;44.632;10.942;2023-04-25T06:48:34;15.60;86.10
15554;DHT22;7878;44.632;10.942;2023-04-25T06:51:00;15.70;86.90
15554;DHT22;7878;44.632;10.942;2023-04-25T06:53:26;15.60;86.70
15554;DHT22;7878;44.632;10.942;2023-04-25T06:55:51;15.70;86.70
15554;DHT22;7878;44.632;10.942;2023-04-25T06:58:17;15.70;86.20
15554;DHT22;7878;44.632;10.942;2023-04-25T07:00:43;15.80;87.30
15554;DHT22;7878;44.632;10.942;2023-04-25T07:03:09;15.90;86.80
15554;DHT22;7878;44.632;10.942;2023-04-25T07:05:35;16.00;86.80
15554;DHT22;7878;44.632;10.942;2023-04-25T07:08:01;16.10;86.80
15554;DHT22;7878;44.632;10.942;2023-04-25T07:10:26;16.20;86.60
15554;DHT22;7878;44.632;10.942;2023-04-25T07:12:52;16.30;86.70
15554;DHT22;7878;44.632;10.942;2023-04-25T07:15:17;16.40;86.60
15554;DHT22;7878;44.632;10.942;2023-04-25T07:17:43;16.40;86.50
15554;DHT22;7878;44.632;10.942;2023-04-25T07:20:09;16.60;86.80
15554;DHT22;7878;44.632;10.942;2023-04-25T07:22:35;16.80;86.40
15554;DHT22;7878;44.632;10.942;2023-04-25T07:25:01;17.00;86.60
15554;DHT22;7878;44.632;10.942;2023-04-25T07:27:26;17.00;86.40
15554;DHT22;7878;44.632;10.942;2023-04-25T07:29:52;17.10;86.10
15554;DHT22;7878;44.632;10.942;2023-04-25T07:32:19;17.20;86.20
15554;DHT22;7878;44.632;10.942;2023-04-25T07:34:45;17.40;86.70
15554;DHT22;7878;44.632;10.942;2023-04-25T07:37:10;17.50;86.10
15554;DHT22;7878;44.632;10.942;2023-04-25T07:39:36;17.60;85.70
15554;DHT22;7878;44.632;10.942;2023-04-25T07:42:03;17.60;85.90
15554;DHT22;7878;44.632;10.942;2023-04-25T07:44:29;17.60;86.30
15554;DHT22;7878;44.632;10.942;2023-04-25T07:46:56;17.50;86.20
15554;DHT22;7878;44.632;10.942;2023-04-25T07:49:21;17.30;86.20
15554;DHT22;7878;44.632;10.942;2023-04-25T07:51:47;17.30;86.50
15554;DHT22;7878;44.632;10.942;2023-04-25T07:54:14;17.20;87.00
15554;DHT22;7878;44.632;10.942;2023-04-25T07:56:41;17.00;87.20
15554;DHT22;7878;44.632;10.942;2023-04-25T07:59:06;16.90;87.10
15554;DHT22;7878;44.632;10.942;2023-04-25T08:01:33;16.70;85.90
15554;DHT22;7878;44.632;10.942;2023-04-25T08:03:59;16.60;86.10
15554;DHT22;7878;44.632;10.942;2023-04-25T08:06:25;16.50;84.90
15554;DHT22;7878;44.632;10.942;2023-04-25T08:08:51;16.30;84.30
15554;DHT22;7878;44.632;10.942;2023-04-25T08:11:16;16.30;84.00
15554;DHT22;7878;44.632;10.942;2023-04-25T08:13:42;16.30;84.00
15554;DHT22;7878;44.632;10.942;2023-04-25T08:16:08;16.30;83.70
15554;DHT22;7878;44.632;10.942;2023-04-25T08:18:33;16.50;83.90
15554;DHT22;7878;44.632;10.942;2023-04-25T08:20:59;16.60;83.20
15554;DHT22;7878;44.632;10.942;2023-04-25T08:23:25;16.60;83.20
15554;DHT22;7878;44.632;10.942;2023-04-25T08:25:50;16.60;83.20
15554;DHT22;7878;44.632;10.942;2023-04-25T08:28:16;16.50;83.10
15554;DHT22;7878;44.632;10.942;2023-04-25T08:30:42;16.50;83.30
15554;DHT22;7878;44.632;10.942;2023-04-25T08:33:07;16.40;83.20
15554;DHT22;7878;44.632;10.942;2023-04-25T08:35:33;16.50;83.30
15554;DHT22;7878;44.632;10.942;2023-04-25T08:37:59;16.50;83.50
15554;DHT22;7878;44.632;10.942;2023-04-25T08:40:27;16.50;83.50
15554;DHT22;7878;44.632;10.942;2023-04-25T08:42:57;16.50;83.30
15554;DHT22;7878;44.632;10.942;2023-04-25T08:45:22;16.50;83.30
15554;DHT22;7878;44.632;10.942;2023-04-25T08:47:51;16.40;84.10
15554;DHT22;7878;44.632;10.942;2023-04-25T08:50:18;16.40;84.10
15554;DHT22;7878;44.632;10.942;2023-04-25T08:52:47;16.40;83.90
15554;DHT22;7878;44.632;10.942;2023-04-25T08:55:15;16.40;83.10
15554;DHT22;7878;44.632;10.942;2023-04-25T08:57:42;16.30;83.00
15554;DHT22;7878;44.632;10.942;2023-04-25T09:00:11;16.40;82.70
15554;DHT22;7878;44.632;10.942;2023-04-25T09:02:42;16.60;82.20
15554;DHT22;7878;44.632;10.942;2023-04-25T09:05:09;16.70;81.90
15554;DHT22;7878;44.632;10.942;2023-04-25T09:07:37;16.80;81.00
15554;DHT22;7878;44.632;10.942;2023-04-25T09:10:03;16.90;80.80
15554;DHT22;7878;44.632;10.942;2023-04-25T09:12:29;17.00;80.70
15554;DHT22;7878;44.632;10.942;2023-04-25T09:15:05;17.20;81.10
15554;DHT22;7878;44.632;10.942;2023-04-25T09:17:31;17.50;80.80
15554;DHT22;7878;44.632;10.942;2023-04-25T09:20:09;17.90;80.80
15554;DHT22;7878;44.632;10.942;2023-04-25T09:22:36;18.10;80.00
15554;DHT22;7878;44.632;10.942;2023-04-25T09:25:10;18.50;79.70
15554;DHT22;7878;44.632;10.942;2023-04-25T09:27:37;18.70;78.30
15554;DHT22;7878;44.632;10.942;2023-04-25T09:30:16;18.80;78.60
15554;DHT22;7878;44.632;10.942;2023-04-25T09:32:43;18.90;78.20
15554;DHT22;7878;44.632;10.942;2023-04-25T09:35:09;19.20;77.70
15554;DHT22;7878;44.632;10.942;2023-04-25T09:37:34;19.20;77.00
15554;DHT22;7878;44.632;10.942;2023-04-25T09:40:05;19.10;77.20
15554;DHT22;7878;44.632;10.942;2023-04-25T09:42:31;18.90;76.10
15554;DHT22;7878;44.632;10.942;2023-04-25T09:45:00;18.80;77.30
15554;DHT22;7878;44.632;10.942;2023-04-25T09:47:29;18.70;77.00
15554;DHT22;7878;44.632;10.942;2023-04-25T09:49:55;18.60;77.20
15554;DHT22;7878;44.632;10.942;2023-04-25T09:52:22;18.70;77.50
15554;DHT22;7878;44.632;10.942;2023-04-25T09:54:49;18.50;77.20
15554;DHT22;7878;44.632;10.942;2023-04-25T09:57:19;18.40;77.30
15554;DHT22;7878;44.632;10.942;2023-04-25T10:02:16;18.70;76.30
15554;DHT22;7878;44.632;10.942;2023-04-25T10:04:46;18.90;76.00
15554;DHT22;7878;44.632;10.942;2023-04-25T10:07:13;19.10;75.70
15554;DHT22;7878;44.632;10.942;2023-04-25T10:09:40;19.20;75.40
15554;DHT22;7878;44.632;10.942;2023-04-25T10:12:07;19.40;76.10
15554;DHT22;7878;44.632;10.942;2023-04-25T10:14:33;19.60;75.10
15554;DHT22;7878;44.632;10.942;2023-04-25T10:17:00;19.60;75.70
15554;DHT22;7878;44.632;10.942;2023-04-25T10:19:26;19.70;75.20
15554;DHT22;7878;44.632;10.942;2023-04-25T10:22:04;19.70;74.90
15554;DHT22;7878;44.632;10.942;2023-04-25T10:24:31;19.80;75.20
15554;DHT22;7878;44.632;10.942;2023-04-25T10:26:58;20.00;75.90
15554;DHT22;7878;44.632;10.942;2023-04-25T10:29:26;20.20;75.20
15554;DHT22;7878;44.632;10.942;2023-04-25T10:31:52;20.30;74.70
15554;DHT22;7878;44.632;10.942;2023-04-25T10:34:18;20.30;74.50
15554;DHT22;7878;44.632;10.942;2023-04-25T10:36:53;20.30;74.60
15554;DHT22;7878;44.632;10.942;2023-04-25T10:39:25;20.40;72.80
15554;DHT22;7878;44.632;10.942;2023-04-25T10:41:58;20.50;73.90
15554;DHT22;7878;44.632;10.942;2023-04-25T10:44:28;20.60;73.50
15554;DHT22;7878;44.632;10.942;2023-04-25T10:46:59;20.70;73.90
15554;DHT22;7878;44.632;10.942;2023-04-25T10:49:30;20.70;73.40
15554;DHT22;7878;44.632;10.942;2023-04-25T10:52:16;20.60;73.30
15554;DHT22;7878;44.632;10.942;2023-04-25T10:54:58;20.70;71.70
15554;DHT22;7878;44.632;10.942;2023-04-25T10:57:39;20.70;71.60
15554;DHT22;7878;44.632;10.942;2023-04-25T11:00:13;20.60;73.00
15554;DHT22;7878;44.632;10.942;2023-04-25T11:02:53;20.60;73.00
15554;DHT22;7878;44.632;10.942;2023-04-25T11:07:54;20.70;73.00
15554;DHT22;7878;44.632;10.942;2023-04-25T11:10:29;21.00;72.30
15554;DHT22;7878;44.632;10.942;2023-04-25T11:12:56;21.10;72.40
15554;DHT22;7878;44.632;10.942;2023-04-25T11:15:21;21.00;72.60
15554;DHT22;7878;44.632;10.942;2023-04-25T11:17:47;20.90;72.40
15554;DHT22;7878;44.632;10.942;2023-04-25T11:20:13;20.70;71.60
15554;DHT22;7878;44.632;10.942;2023-04-25T11:22:41;20.50;72.30
15554;DHT22;7878;44.632;10.942;2023-04-25T11:25:11;20.70;73.20
15554;DHT22;7878;44.632;10.942;2023-04-25T11:27:57;21.10;72.80
15554;DHT22;7878;44.632;10.942;2023-04-25T11:30:24;21.90;73.20
15554;DHT22;7878;44.632;10.942;2023-04-25T11:32:51;22.80;70.70
15554;DHT22;7878;44.632;10.942;2023-04-25T11:35:18;23.80;70.20
15554;DHT22;7878;44.632;10.942;2023-04-25T11:37:44;23.50;68.60
15554;DHT22;7878;44.632;10.942;2023-04-25T11:40:11;23.00;68.60
15554;DHT22;7878;44.632;10.942;2023-04-25T11:42:44;22.60;69.90
15554;DHT22;7878;44.632;10.942;2023-04-25T11:45:10;22.40;69.00
15554;DHT22;7878;44.632;10.942;2023-04-25T11:47:36;22.30;69.20
15554;DHT22;7878;44.632;10.942;2023-04-25T11:50:07;22.30;70.60
15554;DHT22;7878;44.632;10.942;2023-04-25T11:52:39;22.30;70.00
15554;DHT22;7878;44.632;10.942;2023-04-25T11:55:13;22.20;69.80
15554;DHT22;7878;44.632;10.942;2023-04-25T11:57:40;21.90;70.40
15554;DHT22;7878;44.632;10.942;2023-04-25T12:00:18;21.70;70.90
15554;DHT22;7878;44.632;10.942;2023-04-25T12:02:56;21.50;68.70
15554;DHT22;7878;44.632;10.942;2023-04-25T12:05:28;21.30;69.80
15554;DHT22;7878;44.632;10.942;2023-04-25T12:07:54;21.20;70.90
15554;DHT22;7878;44.632;10.942;2023-04-25T12:10:20;21.20;70.60
15554;DHT22;7878;44.632;10.942;2023-04-25T12:12:47;21.20;71.60
15554;DHT22;7878;44.632;10.942;2023-04-25T12:15:22;21.30;71.60
15554;DHT22;7878;44.632;10.942;2023-04-25T12:17:50;21.20;71.40
15554;DHT22;7878;44.632;10.942;2023-04-25T12:20:18;21.20;72.50
15554;DHT22;7878;44.632;10.942;2023-04-25T12:22:46;21.00;70.80
15554;DHT22;7878;44.632;10.942;2023-04-25T12:25:13;20.90;72.30
15554;DHT22;7878;44.632;10.942;2023-04-25T12:27:39;20.80;72.40
15554;DHT22;7878;44.632;10.942;2023-04-25T12:30:08;20.70;72.30
15554;DHT22;7878;44.632;10.942;2023-04-25T12:32:34;20.70;71.90
15554;DHT22;7878;44.632;10.942;2023-04-25T12:35:00;20.60;71.80
15554;DHT22;7878;44.632;10.942;2023-04-25T12:37:28;20.40;70.80
15554;DHT22;7878;44.632;10.942;2023-04-25T12:39:53;20.10;71.40
15554;DHT22;7878;44.632;10.942;2023-04-25T12:42:19;20.00;72.00
15554;DHT22;7878;44.632;10.942;2023-04-25T12:44:45;20.10;72.60
15554;DHT22;7878;44.632;10.942;2023-04-25T12:47:12;20.40;73.00
15554;DHT22;7878;44.632;10.942;2023-04-25T12:49:37;20.50;73.50
15554;DHT22;7878;44.632;10.942;2023-04-25T12:52:03;20.50;72.40
15554;DHT22;7878;44.632;10.942;2023-04-25T12:54:29;20.60;72.30
15554;DHT22;7878;44.632;10.942;2023-04-25T12:56:54;20.50;72.10
15554;DHT22;7878;44.632;10.942;2023-04-25T12:59:20;20.40;72.60
15554;DHT22;7878;44.632;10.942;2023-04-25T13:01:46;20.50;72.10
15554;DHT22;7878;44.632;10.942;2023-04-25T13:04:12;20.40;72.90
15554;DHT22;7878;44.632;10.942;2023-04-25T13:06:38;20.40;72.70
15554;DHT22;7878;44.632;10.942;2023-04-25T13:09:03;20.60;73.90
15554;DHT22;7878;44.632;10.942;2023-04-25T13:11:30;20.60;71.80
15554;DHT22;7878;44.632;10.942;2023-04-25T13:13:56;20.60;72.20
15554;DHT22;7878;44.632;10.942;2023-04-25T13:16:21;20.70;72.40
15554;DHT22;7878;44.632;10.942;2023-04-25T13:18:48;20.70;71.70
15554;DHT22;7878;44.632;10.942;2023-04-25T13:21:13;20.70;71.70
15554;DHT22;7878;44.632;10.942;2023-04-25T13:23:40;20.60;71.70
15554;DHT22;7878;44.632;10.942;2023-04-25T13:26:08;20.50;72.10
15554;DHT22;7878;44.632;10.942;2023-04-25T13:28:33;20.40;72.10
15554;DHT22;7878;44.632;10.942;2023-04-25T13:30:59;20.20;72.70
15554;DHT22;7878;44.632;10.942;2023-04-25T13:33:25;20.20;72.80
15554;DHT22;7878;44.632;10.942;2023-04-25T13:35:51;20.20;72.20
15554;DHT22;7878;44.632;10.942;2023-04-25T13:38:22;20.20;72.20
15554;DHT22;7878;44.632;10.942;2023-04-25T13:40:48;20.20;72.60
15554;DHT22;7878;44.632;10.942;2023-04-25T13:43:13;20.20;73.40
15554;DHT22;7878;44.632;10.942;2023-04-25T13:45:39;20.30;73.90
15554;DHT22;7878;44.632;10.942;2023-04-25T13:48:05;20.20;73.70
15554;DHT22;7878;44.632;10.942;2023-04-25T13:50:31;20.30;74.00
15554;DHT22;7878;44.632;10.942;2023-04-25T13:52:57;20.30;74.10
15554;DHT22;7878;44.632;10.942;2023-04-25T13:55:23;20.30;74.30
15554;DHT22;7878;44.632;10.942;2023-04-25T13:57:48;20.50;74.10
15554;DHT22;7878;44.632;10.942;2023-04-25T14:00:14;20.60;74.10
15554;DHT22;7878;44.632;10.942;2023-04-25T14:02:40;20.60;74.00
15554;DHT22;7878;44.632;10.942;2023-04-25T14:05:06;20.50;74.10
15554;DHT22;7878;44.632;10.942;2023-04-25T14:07:33;20.50;74.10
15554;DHT22;7878;44.632;10.942;2023-04-25T14:10:00;20.40;74.60
15554;DHT22;7878;44.632;10.942;2023-04-25T14:12:25;20.30;74.80
15554;DHT22;7878;44.632;10.942;2023-04-25T14:14:51;20.30;75.00
15554;DHT22;7878;44.632;10.942;2023-04-25T14:17:18;20.30;74.90
15554;DHT22;7878;44.632;10.942;2023-04-25T14:19:44;20.20;75.10
15554;DHT22;7878;44.632;10.942;2023-04-25T14:22:13;20.20;74.90
15554;DHT22;7878;44.632;10.942;2023-04-25T14:24:40;20.20;75.30
15554;DHT22;7878;44.632;10.942;2023-04-25T14:27:05;20.20;75.50
15554;DHT22;7878;44.632;10.942;2023-04-25T14:29:31;20.10;75.50
15554;DHT22;7878;44.632;10.942;2023-04-25T14:31:57;20.00;75.50
15554;DHT22;7878;44.632;10.942;2023-04-25T14:34:24;20.10;75.90
15554;DHT22;7878;44.632;10.942;2023-04-25T14:36:51;20.10;75.90
15554;DHT22;7878;44.632;10.942;2023-04-25T14:39:17;20.20;76.00
15554;DHT22;7878;44.632;10.942;2023-04-25T14:41:43;20.20;75.80
15554;DHT22;7878;44.632;10.942;2023-04-25T14:44:08;20.10;75.70
15554;DHT22;7878;44.632;10.942;2023-04-25T14:46:34;20.00;75.70
15554;DHT22;7878;44.632;10.942;2023-04-25T14:49:00;20.00;75.60
15554;DHT22;7878;44.632;10.942;2023-04-25T14:51:26;20.00;76.10
15554;DHT22;7878;44.632;10.942;2023-04-25T14:53:52;20.00;75.50
15554;DHT22;7878;44.632;10.942;2023-04-25T14:56:18;20.00;75.70
15554;DHT22;7878;44.632;10.942;2023-04-25T14:58:44;20.00;75.60
15554;DHT22;7878;44.632;10.942;2023-04-25T15:01:11;19.90;74.80
15554;DHT22;7878;44.632;10.942;2023-04-25T15:03:39;19.90;74.40
15554;DHT22;7878;44.632;10.942;2023-04-25T15:06:05;19.80;74.60
15554;DHT22;7878;44.632;10.942;2023-04-25T15:08:31;19.80;74.90
15554;DHT22;7878;44.632;10.942;2023-04-25T15:10:58;19.80;74.60
15554;DHT22;7878;44.632;10.942;2023-04-25T15:13:24;19.90;74.90
15554;DHT22;7878;44.632;10.942;2023-04-25T15:15:50;20.00;74.30
15554;DHT22;7878;44.632;10.942;2023-04-25T15:18:23;20.00;74.20
15554;DHT22;7878;44.632;10.942;2023-04-25T15:20:52;20.00;73.20
15554;DHT22;7878;44.632;10.942;2023-04-25T15:23:19;20.00;73.60
15554;DHT22;7878;44.632;10.942;2023-04-25T15:25:46;20.00;73.80
15554;DHT22;7878;44.632;10.942;2023-04-25T15:28:13;20.00;73.50
15554;DHT22;7878;44.632;10.942;2023-04-25T15:30:43;19.90;73.90
15554;DHT22;7878;44.632;10.942;2023-04-25T15:33:08;19.80;74.00